createdAt,value
2017-10-19T07:09:25.000Z,91.68
2017-10-19T07:10:06.000Z,89.71
2017-10-19T07:11:07.000Z,89.45
2017-10-19T07:12:06.000Z,88.04
2017-10-19T07:13:06.000Z,86.35
2017-10-19T07:14:06.000Z,87.91
2017-10-19T07:15:06.000Z,88.53
2017-10-19T07:16:06.000Z,90.67
2017-10-19T07:17:06.000Z,90.31
2017-10-19T07:18:06.000Z,89.79
2017-10-19T07:19:06.000Z,91.26
2017-10-19T07:20:06.000Z,89.42
2017-10-19T07:21:06.000Z,91.36
2017-10-19T07:22:08.000Z,90.38
2017-10-19T07:23:08.000Z,91.53
2017-10-19T07:24:08.000Z,91.95
2017-10-19T07:25:08.000Z,91.36
2017-10-19T07:26:08.000Z,90.84
2017-10-19T07:27:06.000Z,92.03
2017-10-19T07:28:08.000Z,92.51
2017-10-19T07:29:06.000Z,92.08
2017-10-19T07:30:06.000Z,93.15
2017-10-19T07:31:06.000Z,93.91
2017-10-19T07:32:06.000Z,93.07
2017-10-19T07:33:06.000Z,93.08
2017-10-19T07:34:06.000Z,94.00
2017-10-19T07:35:06.000Z,92.02
2017-10-19T07:36:06.000Z,91.90
2017-10-19T07:37:06.000Z,94.00
2017-10-19T07:38:06.000Z,93.47
2017-10-19T07:39:06.000Z,93.93
2017-10-19T07:40:06.000Z,94.14
2017-10-19T07:41:06.000Z,94.07
2017-10-19T07:42:06.000Z,92.30
2017-10-19T07:43:06.000Z,92.33
2017-10-19T07:44:09.000Z,92.48
2017-10-19T07:45:08.000Z,90.54
2017-10-19T07:46:06.000Z,90.58
2017-10-19T07:47:06.000Z,89.29
2017-10-19T07:48:06.000Z,90.84
2017-10-19T07:49:06.000Z,91.22
2017-10-19T07:50:06.000Z,91.95
2017-10-19T07:51:06.000Z,91.05
2017-10-19T07:52:09.000Z,89.47
2017-10-19T07:53:06.000Z,89.65
2017-10-19T07:54:08.000Z,90.39
2017-10-19T07:55:08.000Z,90.63
2017-10-19T07:56:08.000Z,88.53
2017-10-19T07:57:08.000Z,91.23
2017-10-19T07:58:08.000Z,89.53
2017-10-19T07:59:08.000Z,87.46
2017-10-19T08:00:08.000Z,86.90
2017-10-19T08:01:08.000Z,88.25
2017-10-19T08:02:08.000Z,88.03
2017-10-19T08:03:08.000Z,88.13
2017-10-19T08:04:06.000Z,87.61
2017-10-19T08:05:08.000Z,87.30
2017-10-19T08:06:06.000Z,87.37
2017-10-19T08:07:06.000Z,87.85
2017-10-19T08:08:06.000Z,87.13
2017-10-19T08:09:06.000Z,85.83
2017-10-19T08:10:06.000Z,86.20
2017-10-19T08:11:06.000Z,87.14
2017-10-19T08:12:06.000Z,86.45
2017-10-19T08:13:06.000Z,87.45
2017-10-19T08:14:06.000Z,85.55
2017-10-19T08:15:06.000Z,86.22
2017-10-19T08:16:06.000Z,86.17
2017-10-19T08:17:06.000Z,84.74
2017-10-19T08:18:06.000Z,85.59
2017-10-19T08:19:06.000Z,85.29
2017-10-19T08:20:08.000Z,85.31
2017-10-19T08:21:08.000Z,84.08
2017-10-19T08:22:06.000Z,83.04
2017-10-19T08:23:06.000Z,84.45
2017-10-19T08:24:06.000Z,83.71
2017-10-19T08:25:06.000Z,83.08
2017-10-19T08:26:06.000Z,83.27
2017-10-19T08:27:06.000Z,84.76
2017-10-19T08:28:06.000Z,84.19
2017-10-19T08:29:06.000Z,84.74
2017-10-19T08:30:06.000Z,83.93
2017-10-19T08:31:06.000Z,83.36
2017-10-19T08:32:06.000Z,82.74
2017-10-19T08:33:06.000Z,82.42
2017-10-19T08:34:07.000Z,81.19
2017-10-19T08:35:06.000Z,80.91
2017-10-19T08:36:08.000Z,82.43
2017-10-19T08:37:08.000Z,80.90
2017-10-19T08:38:08.000Z,80.20
2017-10-19T08:39:08.000Z,82.17
2017-10-19T08:40:08.000Z,81.49
2017-10-19T08:41:06.000Z,80.82
2017-10-19T08:42:09.000Z,80.35
2017-10-19T08:43:09.000Z,80.53
2017-10-19T08:44:06.000Z,78.87
2017-10-19T08:45:06.000Z,78.78
2017-10-19T08:46:06.000Z,78.96
2017-10-19T08:47:07.000Z,81.05
2017-10-19T08:48:07.000Z,80.78
2017-10-19T08:49:06.000Z,81.38
2017-10-19T08:50:06.000Z,79.74
2017-10-19T08:51:06.000Z,79.69
2017-10-19T08:52:06.000Z,79.45
2017-10-19T08:53:07.000Z,79.39
2017-10-19T08:54:07.000Z,81.80
2017-10-19T08:55:06.000Z,81.27
2017-10-19T08:56:08.000Z,79.34
2017-10-19T08:57:08.000Z,77.79
2017-10-19T08:58:08.000Z,77.82
2017-10-19T08:59:08.000Z,78.34
2017-10-19T09:00:07.000Z,79.57
2017-10-19T09:01:07.000Z,79.99
2017-10-19T09:02:07.000Z,78.52
2017-10-19T09:03:06.000Z,81.35
2017-10-19T09:04:07.000Z,78.85
2017-10-19T09:05:06.000Z,77.64
2017-10-19T09:06:06.000Z,77.84
2017-10-19T09:07:06.000Z,76.44
2017-10-19T09:08:06.000Z,75.91
2017-10-19T09:09:06.000Z,75.60
2017-10-19T09:10:07.000Z,77.48
2017-10-19T09:11:06.000Z,77.13
2017-10-19T09:12:08.000Z,76.02
2017-10-19T09:13:08.000Z,76.98
2017-10-19T09:14:08.000Z,75.42
2017-10-19T09:15:06.000Z,75.57
2017-10-19T09:16:06.000Z,74.55
2017-10-19T09:17:07.000Z,73.12
2017-10-19T09:18:07.000Z,75.28
2017-10-19T09:19:07.000Z,74.20
2017-10-19T09:20:07.000Z,76.25
2017-10-19T09:21:06.000Z,75.58
2017-10-19T09:22:06.000Z,75.34
2017-10-19T09:23:07.000Z,74.96
2017-10-19T09:24:07.000Z,74.52
2017-10-19T09:25:07.000Z,74.38
2017-10-19T09:26:07.000Z,74.62
2017-10-19T09:27:07.000Z,74.87
2017-10-19T09:28:07.000Z,74.53
2017-10-19T09:29:07.000Z,73.25
2017-10-19T09:30:07.000Z,74.54
2017-10-19T09:31:08.000Z,75.12
2017-10-19T09:32:08.000Z,74.43
2017-10-19T09:33:08.000Z,74.54
2017-10-19T09:34:08.000Z,72.97
2017-10-19T09:35:07.000Z,75.26
2017-10-19T09:36:07.000Z,74.41
2017-10-19T09:37:07.000Z,74.55
2017-10-19T09:38:07.000Z,74.09
2017-10-19T09:39:07.000Z,76.44
2017-10-19T09:40:07.000Z,76.18
2017-10-19T09:41:07.000Z,75.75
2017-10-19T09:42:07.000Z,75.91
2017-10-19T09:43:07.000Z,75.07
2017-10-19T09:44:07.000Z,76.45
2017-10-19T09:45:07.000Z,75.40
2017-10-19T09:46:07.000Z,74.50
2017-10-19T09:47:07.000Z,74.50
2017-10-19T09:48:07.000Z,74.18
2017-10-19T09:49:07.000Z,74.46
2017-10-19T09:50:08.000Z,74.79
2017-10-19T09:51:08.000Z,74.72
2017-10-19T09:52:07.000Z,75.75
2017-10-19T09:53:09.000Z,74.51
2017-10-19T09:54:07.000Z,74.13
2017-10-19T09:55:07.000Z,75.03
2017-10-19T09:56:07.000Z,75.55
2017-10-19T09:57:07.000Z,73.32
2017-10-19T09:58:07.000Z,71.63
2017-10-19T09:59:07.000Z,70.61
2017-10-19T10:00:07.000Z,70.20
2017-10-19T10:01:07.000Z,71.66
2017-10-19T10:02:07.000Z,72.48
2017-10-19T10:03:09.000Z,71.81
2017-10-19T10:04:07.000Z,69.95
2017-10-19T10:05:07.000Z,71.32
2017-10-19T10:06:07.000Z,70.54
2017-10-19T10:07:07.000Z,70.91
2017-10-19T10:08:07.000Z,70.37
2017-10-19T10:09:07.000Z,69.76
2017-10-19T10:10:08.000Z,70.51
2017-10-19T10:11:07.000Z,69.16
2017-10-19T10:12:07.000Z,70.40
2017-10-19T10:13:07.000Z,69.76
2017-10-19T10:14:07.000Z,69.72
2017-10-19T10:15:07.000Z,69.14
2017-10-19T10:16:07.000Z,69.51
2017-10-19T10:17:07.000Z,69.76
2017-10-19T10:18:07.000Z,68.92
2017-10-19T10:19:07.000Z,68.63
2017-10-19T10:20:07.000Z,68.19
2017-10-19T10:21:07.000Z,70.77
2017-10-19T10:22:07.000Z,69.61
2017-10-19T10:23:07.000Z,67.38
2017-10-19T10:24:08.000Z,69.57
2017-10-19T10:25:09.000Z,69.23
2017-10-19T10:26:08.000Z,68.74
2017-10-19T10:27:07.000Z,68.26
2017-10-19T10:28:08.000Z,69.46
2017-10-19T10:29:07.000Z,67.92
2017-10-19T10:30:07.000Z,69.79
2017-10-19T10:31:07.000Z,68.26
2017-10-19T10:32:07.000Z,69.49
2017-10-19T10:33:07.000Z,68.77
2017-10-19T10:34:07.000Z,68.57
2017-10-19T10:35:07.000Z,68.80
2017-10-19T10:36:07.000Z,67.88
2017-10-19T10:37:07.000Z,66.95
2017-10-19T10:38:07.000Z,67.75
2017-10-19T10:39:07.000Z,65.79
2017-10-19T10:40:07.000Z,67.78
2017-10-19T10:41:07.000Z,69.93
2017-10-19T10:42:07.000Z,67.95
2017-10-19T10:43:09.000Z,67.93
2017-10-19T10:44:08.000Z,66.18
2017-10-19T10:45:08.000Z,67.65
2017-10-19T10:46:09.000Z,64.69
2017-10-19T10:47:07.000Z,67.83
2017-10-19T10:48:07.000Z,67.10
2017-10-19T10:49:07.000Z,65.70
2017-10-19T10:50:09.000Z,65.81
2017-10-19T10:51:07.000Z,66.05
2017-10-19T10:52:07.000Z,65.96
2017-10-19T10:53:07.000Z,66.85
2017-10-19T10:54:07.000Z,66.73
2017-10-19T10:55:07.000Z,67.53
2017-10-19T10:56:07.000Z,65.96
2017-10-19T10:57:07.000Z,65.90
2017-10-19T10:58:07.000Z,63.63
2017-10-19T10:59:09.000Z,64.96
2017-10-19T11:00:08.000Z,66.07
2017-10-19T11:01:08.000Z,66.57
2017-10-19T11:02:09.000Z,63.91
2017-10-19T11:03:09.000Z,63.62
2017-10-19T11:04:07.000Z,64.42
2017-10-19T11:05:07.000Z,63.46
2017-10-19T11:06:07.000Z,62.67
2017-10-19T11:07:07.000Z,64.19
2017-10-19T11:08:07.000Z,64.41
2017-10-19T11:09:07.000Z,64.13
2017-10-19T11:10:07.000Z,64.82
2017-10-19T11:11:07.000Z,62.28
2017-10-19T11:12:07.000Z,63.56
2017-10-19T11:13:07.000Z,62.13
2017-10-19T11:14:07.000Z,62.79
2017-10-19T11:15:07.000Z,62.41
2017-10-19T11:16:07.000Z,64.54
2017-10-19T11:17:09.000Z,62.99
2017-10-19T11:18:09.000Z,65.00
2017-10-19T11:19:08.000Z,60.62
2017-10-19T11:20:09.000Z,60.30
2017-10-19T11:21:09.000Z,59.13
2017-10-19T11:22:09.000Z,60.92
2017-10-19T11:23:07.000Z,61.35
2017-10-19T11:24:07.000Z,59.58
2017-10-19T11:25:07.000Z,59.12
2017-10-19T11:26:07.000Z,58.96
2017-10-19T11:27:07.000Z,58.20
2017-10-19T11:28:07.000Z,58.83
2017-10-19T11:29:07.000Z,56.78
2017-10-19T11:30:07.000Z,56.38
2017-10-19T11:31:07.000Z,58.38
2017-10-19T11:32:07.000Z,57.69
2017-10-19T11:33:07.000Z,59.22
2017-10-19T11:34:07.000Z,59.06
2017-10-19T11:35:07.000Z,58.38
2017-10-19T11:36:07.000Z,56.51
2017-10-19T11:37:09.000Z,56.48
2017-10-19T11:38:09.000Z,58.13
2017-10-19T11:39:09.000Z,58.28
2017-10-19T11:40:07.000Z,56.24
2017-10-19T11:41:07.000Z,58.67
2017-10-19T11:42:07.000Z,58.16
2017-10-19T11:43:07.000Z,59.58
2017-10-19T11:44:07.000Z,58.64
2017-10-19T11:45:07.000Z,58.27
2017-10-19T11:46:07.000Z,57.00
2017-10-19T11:47:07.000Z,58.67
2017-10-19T11:48:07.000Z,57.14
2017-10-19T11:49:07.000Z,57.66
2017-10-19T11:50:07.000Z,57.28
2017-10-19T11:51:07.000Z,57.18
2017-10-19T11:52:07.000Z,56.37
2017-10-19T11:53:07.000Z,55.77
2017-10-19T11:54:09.000Z,55.47
2017-10-19T11:55:09.000Z,56.92
2017-10-19T11:56:09.000Z,56.95
2017-10-19T11:57:09.000Z,57.39
2017-10-19T11:58:07.000Z,57.38
2017-10-19T11:59:07.000Z,57.03
2017-10-19T12:00:07.000Z,55.80
2017-10-19T12:01:07.000Z,56.96
2017-10-19T12:02:07.000Z,56.52
2017-10-19T12:03:07.000Z,56.52
2017-10-19T12:04:07.000Z,56.26
2017-10-19T12:05:07.000Z,55.99
2017-10-19T12:06:07.000Z,56.87
2017-10-19T12:07:07.000Z,56.54
2017-10-19T12:08:07.000Z,56.83
2017-10-19T12:09:07.000Z,54.95
2017-10-19T12:10:07.000Z,54.72
2017-10-19T12:11:07.000Z,55.53
2017-10-19T12:12:09.000Z,56.60
2017-10-19T12:13:09.000Z,56.66
2017-10-19T12:14:09.000Z,55.38
2017-10-19T12:15:07.000Z,55.31
2017-10-19T12:16:07.000Z,55.93
2017-10-19T12:17:07.000Z,55.39
2017-10-19T12:18:07.000Z,56.09
2017-10-19T12:19:07.000Z,54.95
2017-10-19T12:20:07.000Z,55.51
2017-10-19T12:21:07.000Z,55.95
2017-10-19T12:22:07.000Z,56.01
2017-10-19T12:23:07.000Z,57.64
2017-10-19T12:24:07.000Z,56.89
2017-10-19T12:25:09.000Z,56.01
2017-10-19T12:26:09.000Z,55.35
2017-10-19T12:27:09.000Z,55.61
2017-10-19T12:28:09.000Z,54.47
2017-10-19T12:29:09.000Z,54.74
2017-10-19T12:30:09.000Z,53.35
2017-10-19T12:31:10.000Z,53.10
2017-10-19T12:32:07.000Z,55.42
2017-10-19T12:33:07.000Z,54.24
2017-10-19T12:34:09.000Z,53.53
2017-10-19T12:35:07.000Z,52.33
2017-10-19T12:36:07.000Z,56.11
2017-10-19T12:37:07.000Z,52.31
2017-10-19T12:38:07.000Z,52.71
2017-10-19T12:39:07.000Z,50.10
2017-10-19T12:40:07.000Z,50.83
2017-10-19T12:41:07.000Z,49.80
2017-10-19T12:42:07.000Z,51.37
2017-10-19T12:43:07.000Z,50.80
2017-10-19T12:44:07.000Z,50.08
2017-10-19T12:45:08.000Z,50.53
2017-10-19T12:46:07.000Z,49.28
2017-10-19T12:47:07.000Z,49.18
2017-10-19T12:48:09.000Z,47.36
2017-10-19T12:49:09.000Z,48.74
2017-10-19T12:50:07.000Z,50.00
2017-10-19T12:51:07.000Z,48.43
2017-10-19T12:52:07.000Z,47.71
2017-10-19T12:53:07.000Z,48.96
2017-10-19T12:54:07.000Z,50.39
2017-10-19T12:55:07.000Z,49.00
2017-10-19T12:56:07.000Z,50.48
2017-10-19T12:57:07.000Z,49.76
2017-10-19T12:58:07.000Z,50.14
2017-10-19T12:59:07.000Z,47.43
2017-10-19T13:00:07.000Z,47.57
2017-10-19T13:01:08.000Z,48.22
2017-10-19T13:03:39.000Z,48.22
2017-10-19T13:03:41.000Z,48.22
2017-10-19T13:03:43.000Z,49.42
2017-10-19T13:04:07.000Z,48.06
2017-10-19T13:07:03.000Z,49.13
2017-10-19T13:07:05.000Z,48.05
2017-10-19T13:07:07.000Z,47.46
2017-10-19T13:08:14.000Z,46.71
2017-10-19T13:09:07.000Z,48.04
2017-10-19T13:10:09.000Z,48.79
